Time;durP1;ratioP1;P1;durP2;ratioP2;P2;SDS_P1;SDS_P2;PMS_P1;PMS_P2;Temp;Humidity;BMP_temperature;BMP_pressure;BME280_temperature;BME280_humidity;BME280_pressure;Samples;Min_cycle;Max_cycle;Signal;HPM_P1;HPM_P2
2023/10/28 00:01:31;;;;;;;12.20;2.20;;;;;;;16.17;100.00;97773.16;5020523;28;20049;-93
2023/10/28 00:03:57;;;;;;;21.00;2.17;;;;;;;15.84;100.00;97712.75;5020418;28;20041;-92
2023/10/28 00:06:23;;;;;;;10.90;1.85;;;;;;;16.12;100.00;97768.09;5012221;28;20446;-91
2023/10/28 00:08:49;;;;;;;11.98;1.35;;;;;;;16.16;100.00;97772.31;5004202;28;20048;-92
2023/10/28 00:11:19;;;;;;;12.23;1.95;;;;;;;16.25;100.00;97791.44;5015682;28;20034;-93
2023/10/28 00:13:45;;;;;;;11.95;1.40;;;;;;;15.76;100.00;97723.94;5013666;28;20054;-94
2023/10/28 00:16:12;;;;;;;14.20;1.98;;;;;;;15.82;100.00;97741.47;5020296;28;20128;-93
2023/10/28 00:18:38;;;;;;;14.80;2.45;;;;;;;15.61;100.00;97728.47;5037329;28;20073;-93
2023/10/28 00:21:07;;;;;;;17.80;2.03;;;;;;;16.01;100.00;97776.84;5019305;28;20061;-93
2023/10/28 00:23:33;;;;;;;12.43;1.63;;;;;;;16.17;100.00;97783.88;5027353;28;20048;-92
2023/10/28 00:26:02;;;;;;;11.88;2.08;;;;;;;15.80;100.00;97720.13;5020121;28;20132;-94
2023/10/28 00:28:28;;;;;;;10.30;1.90;;;;;;;15.78;100.00;97753.34;5023273;28;20045;-93
2023/10/28 00:30:54;;;;;;;17.02;2.05;;;;;;;15.86;100.00;97751.03;5020987;28;20049;-92
2023/10/28 00:33:24;;;;;;;14.05;1.92;;;;;;;16.02;100.00;97754.41;5044347;28;20045;-93
2023/10/28 00:35:50;;;;;;;13.80;1.85;;;;;;;15.79;100.00;97726.44;5019537;28;20048;-93
2023/10/28 00:38:15;;;;;;;13.20;1.75;;;;;;;15.89;100.00;97755.34;5019707;28;20053;-93
2023/10/28 00:40:42;;;;;;;9.93;1.88;;;;;;;16.20;100.00;97794.44;5020134;28;20061;-95
2023/10/28 00:43:10;;;;;;;17.13;2.20;;;;;;;15.78;100.00;97738.13;5019693;28;20431;-93
2023/10/28 00:45:37;;;;;;;15.32;2.15;;;;;;;15.57;100.00;97718.91;5018658;28;20103;-94
2023/10/28 00:48:03;;;;;;;15.05;2.17;;;;;;;15.92;100.00;97765.88;5019903;28;20041;-92
2023/10/28 00:50:35;;;;;;;16.08;2.55;;;;;;;15.94;100.00;97766.59;5019741;28;20410;-92
2023/10/28 00:53:02;;;;;;;14.60;1.83;;;;;;;16.14;100.00;97784.97;5019556;28;20073;-93
2023/10/28 00:55:30;;;;;;;8.52;1.27;;;;;;;16.01;100.00;97755.41;5042499;28;20033;-94
2023/10/28 00:57:57;;;;;;;12.68;2.42;;;;;;;16.06;100.00;97754.25;5046237;28;20049;-92
2023/10/28 01:00:23;;;;;;;12.57;2.78;;;;;;;16.28;100.00;97788.56;5019594;28;20045;-94
2023/10/28 01:02:49;;;;;;;11.32;1.52;;;;;;;16.28;100.00;97796.59;5021046;28;20041;-93
2023/10/28 01:05:16;;;;;;;9.38;3.50;;;;;;;16.14;100.00;97759.97;5019294;28;20037;-92
2023/10/28 01:07:44;;;;;;;17.00;2.17;;;;;;;16.20;100.00;97754.19;5019234;28;20041;-93
2023/10/28 01:10:10;;;;;;;9.32;2.08;;;;;;;16.29;100.00;97787.59;5019531;28;20046;-92
2023/10/28 01:12:37;;;;;;;15.50;2.42;;;;;;;16.09;100.00;97748.66;5020433;28;20056;-92
2023/10/28 01:15:04;;;;;;;13.90;1.77;;;;;;;16.17;100.00;97755.25;5044599;28;20038;-92
2023/10/28 01:17:31;;;;;;;22.60;1.75;;;;;;;16.32;100.00;97768.63;5044278;28;20548;-93
2023/10/28 01:19:57;;;;;;;15.48;1.70;;;;;;;16.12;100.00;97745.78;5019167;28;20052;-93
2023/10/28 01:22:24;;;;;;;13.32;1.50;;;;;;;16.37;100.00;97786.13;5019851;28;20041;-92
2023/10/28 01:24:51;;;;;;;17.48;1.65;;;;;;;16.24;100.00;97744.97;5018568;28;20045;-93
2023/10/28 01:27:17;;;;;;;10.35;1.73;;;;;;;16.31;100.00;97770.44;5018761;28;20438;-93
2023/10/28 01:29:43;;;;;;;13.88;1.58;;;;;;;16.47;100.00;97781.00;5047049;28;20045;-93
2023/10/28 01:32:09;;;;;;;20.90;2.92;;;;;;;16.41;100.00;97787.63;5047138;28;20045;-94
2023/10/28 01:34:47;;;;;;;12.48;1.70;;;;;;;16.25;100.00;97751.22;5035111;28;20456;-93
2023/10/28 01:37:15;;;;;;;13.40;1.75;;;;;;;16.33;100.00;97786.41;5018883;28;20069;-93
2023/10/28 01:39:43;;;;;;;10.38;1.30;;;;;;;16.29;100.00;97788.47;5018723;28;20042;-94
2023/10/28 01:42:13;;;;;;;10.98;2.45;;;;;;;16.15;100.00;97751.78;5018807;28;20095;-94
2023/10/28 01:44:39;;;;;;;10.35;1.73;;;;;;;16.25;100.00;97765.47;5032638;28;20390;-93
2023/10/28 01:47:08;;;;;;;9.80;1.90;;;;;;;16.07;100.00;97732.69;5018217;28;20041;-93
2023/10/28 01:49:34;;;;;;;19.67;1.60;;;;;;;16.14;100.00;97770.69;5035257;28;20038;-94
2023/10/28 01:52:00;;;;;;;15.05;2.05;;;;;;;15.86;100.00;97720.69;5018415;28;20095;-93
2023/10/28 01:54:26;;;;;;;7.75;1.42;;;;;;;16.08;100.00;97742.44;5018521;28;20049;-94
2023/10/28 01:56:54;;;;;;;11.05;1.67;;;;;;;16.17;100.00;97752.56;5016267;28;20095;-94
2023/10/28 01:59:20;;;;;;;10.55;1.33;;;;;;;16.30;100.00;97766.03;4998857;28;20518;-91
2023/10/28 02:01:46;;;;;;;12.80;1.70;;;;;;;16.29;100.00;97750.06;4998041;28;20052;-93
2023/10/28 02:04:12;;;;;;;13.55;1.63;;;;;;;16.17;100.00;97740.97;4999019;28;20383;-92
2023/10/28 02:06:38;;;;;;;8.77;1.33;;;;;;;16.32;100.00;97768.63;4998135;28;20038;-90
2023/10/28 02:09:03;;;;;;;16.02;2.10;;;;;;;16.38;100.00;97770.88;4997953;28;20042;-93
2023/10/28 02:11:32;;;;;;;9.90;1.20;;;;;;;16.27;100.00;97751.97;4995053;28;20038;-92
2023/10/28 02:13:59;;;;;;;16.42;1.85;;;;;;;16.44;100.00;97786.59;4998036;28;20038;-95
2023/10/28 02:16:25;;;;;;;13.77;1.70;;;;;;;16.28;100.00;97767.09;4998036;28;20130;-93
2023/10/28 02:18:51;;;;;;;6.63;1.77;;;;;;;16.16;100.00;97753.53;4995786;28;20062;-92
2023/10/28 02:21:20;;;;;;;8.50;1.10;;;;;;;16.04;100.00;97732.03;4998200;28;20088;-95
2023/10/28 02:23:46;;;;;;;18.02;1.98;;;;;;;15.94;100.00;97723.72;4995639;28;20495;-93
2023/10/28 02:26:12;;;;;;;8.25;1.33;;;;;;;16.11;100.00;97747.63;4998167;28;20056;-91
2023/10/28 02:28:37;;;;;;;12.50;1.17;;;;;;;16.02;100.00;97727.59;5014692;28;20045;-93
2023/10/28 02:31:09;;;;;;;8.50;1.15;;;;;;;15.89;100.00;97715.97;4996905;28;20038;-94
2023/10/28 02:33:35;;;;;;;8.27;1.77;;;;;;;16.00;100.00;97744.75;4998160;28;20034;-93
2023/10/28 02:36:04;;;;;;;11.63;1.30;;;;;;;16.02;100.00;97765.16;4997995;28;20033;-92
2023/10/28 02:38:30;;;;;;;7.78;1.33;;;;;;;16.00;100.00;97761.75;4998282;28;20131;-93
2023/10/28 02:40:56;;;;;;;11.13;1.35;;;;;;;16.02;100.00;97770.50;5014463;28;20042;-92
2023/10/28 02:43:22;;;;;;;9.98;1.65;;;;;;;15.85;100.00;97749.31;4997965;28;20521;-93
2023/10/28 02:45:48;;;;;;;12.95;1.30;;;;;;;15.80;100.00;97762.16;4996952;28;20061;-93
2023/10/28 02:48:15;;;;;;;9.00;1.65;;;;;;;15.53;100.00;97713.84;4997203;28;20038;-92
2023/10/28 02:50:41;;;;;;;6.05;1.20;;;;;;;15.82;100.00;97776.31;5008190;28;20038;-93
2023/10/28 02:53:07;;;;;;;5.72;1.25;;;;;;;15.66;100.00;97760.34;4997430;28;20473;-92
2023/10/28 02:55:35;;;;;;;7.68;1.13;;;;;;;15.56;100.00;97745.78;4997474;28;20034;-93
2023/10/28 02:58:01;;;;;;;22.75;1.73;;;;;;;15.64;100.00;97759.56;5005875;28;20475;-94
2023/10/28 03:00:27;;;;;;;15.25;1.58;;;;;;;15.54;100.00;97745.03;5013649;28;20072;-91
2023/10/28 03:02:55;;;;;;;9.35;1.80;;;;;;;15.61;100.00;97765.09;5014248;28;20045;-94
2023/10/28 03:05:23;;;;;;;6.53;1.65;;;;;;;15.43;100.00;97726.94;5013941;28;20041;-93
2023/10/28 03:07:49;;;;;;;10.75;1.45;;;;;;;15.59;100.00;97767.03;5013859;28;20119;-93
2023/10/28 03:10:15;;;;;;;13.02;1.45;;;;;;;15.28;100.00;97714.53;5014124;28;20504;-94
2023/10/28 03:12:41;;;;;;;11.13;1.70;;;;;;;15.63;100.00;97786.47;5014214;28;20045;-92
2023/10/28 03:15:10;;;;;;;6.22;1.02;;;;;;;15.40;100.00;97736.06;5013741;28;20405;-95
2023/10/28 03:17:36;;;;;;;9.18;1.50;;;;;;;15.37;100.00;97757.66;5013954;28;20119;-92
2023/10/28 03:20:03;;;;;;;17.60;2.17;;;;;;;15.44;100.00;97762.63;5012733;28;20070;-91
2023/10/28 03:22:31;;;;;;;8.80;1.65;;;;;;;15.38;100.00;97761.22;5013785;28;20050;-93
2023/10/28 03:24:56;;;;;;;15.23;2.75;;;;;;;15.32;100.00;97769.63;5013102;28;20471;-92
2023/10/28 03:27:22;;;;;;;7.03;1.27;;;;;;;15.33;100.00;97768.66;5013752;28;20058;-93
2023/10/28 03:29:50;;;;;;;13.00;1.35;;;;;;;15.38;100.00;97771.94;5014181;28;20058;-92
2023/10/28 03:32:16;;;;;;;9.63;1.50;;;;;;;15.44;100.00;97778.72;5049998;28;20073;-93
2023/10/28 03:34:42;;;;;;;12.48;1.20;;;;;;;15.41;100.00;97782.44;5025709;28;20072;-92
2023/10/28 03:37:08;;;;;;;12.75;2.10;;;;;;;15.10;100.00;97749.53;5018128;28;20046;-94
2023/10/28 03:39:38;;;;;;;7.95;1.55;;;;;;;15.29;100.00;97778.72;5043521;28;20034;-92
2023/10/28 03:42:04;;;;;;;7.72;1.25;;;;;;;15.15;100.00;97768.00;5017433;28;20049;-94
2023/10/28 03:44:31;;;;;;;9.18;1.67;;;;;;;15.15;100.00;97774.19;5017204;28;20061;-92
2023/10/28 03:46:57;;;;;;;14.40;2.13;;;;;;;15.28;100.00;97792.19;5017183;28;20092;-94
2023/10/28 03:49:23;;;;;;;8.55;1.50;;;;;;;15.13;100.00;97770.75;5018959;28;20034;-92
2023/10/28 03:51:49;;;;;;;10.48;1.90;;;;;;;15.04;100.00;97767.81;5017528;28;20042;-94
2023/10/28 03:54:15;;;;;;;13.48;1.50;;;;;;;14.97;100.00;97760.13;5017386;28;20518;-93
2023/10/28 03:56:42;;;;;;;11.98;1.77;;;;;;;14.87;100.00;97748.25;5017544;28;20030;-93
2023/10/28 03:59:08;;;;;;;10.27;1.35;;;;;;;15.05;100.00;97777.53;5020974;28;20041;-92
2023/10/28 04:01:34;;;;;;;10.65;1.38;;;;;;;15.04;100.00;97775.84;5013551;28;20581;-92
2023/10/28 04:04:00;;;;;;;12.07;2.10;;;;;;;15.02;100.00;97783.09;5014604;28;20069;-93
2023/10/28 04:06:25;;;;;;;11.43;1.70;;;;;;;15.03;100.00;97776.78;5020513;28;20065;-94
2023/10/28 04:08:51;;;;;;;12.98;1.65;;;;;;;15.15;100.00;97797.44;5020390;28;20087;-93
2023/10/28 04:11:17;;;;;;;8.88;2.20;;;;;;;15.04;100.00;97782.03;5016856;28;20557;-93
2023/10/28 04:13:44;;;;;;;14.90;2.67;;;;;;;14.95;100.00;97771.91;5002092;28;20046;-92
2023/10/28 04:16:10;;;;;;;14.32;1.80;;;;;;;14.96;100.00;97785.19;5019864;28;20038;-94
2023/10/28 04:18:37;;;;;;;17.75;1.58;;;;;;;14.84;100.00;97748.47;5020497;28;20041;-93
2023/10/28 04:21:03;;;;;;;12.55;1.55;;;;;;;14.90;100.00;97753.44;5020113;28;20430;-94
2023/10/28 04:23:29;;;;;;;12.23;1.63;;;;;;;15.00;100.00;97780.50;5020400;28;20045;-93
2023/10/28 04:25:56;;;;;;;8.82;1.35;;;;;;;14.88;100.00;97771.41;5020174;28;20030;-94
2023/10/28 04:28:22;;;;;;;8.63;1.10;;;;;;;14.86;100.00;97751.91;5019909;28;20041;-92
2023/10/28 04:30:56;;;;;;;6.65;1.42;;;;;;;15.13;100.00;97800.22;5051251;28;20562;-94
2023/10/28 04:33:22;;;;;;;15.80;1.33;;;;;;;14.78;100.00;97760.38;5020082;28;20525;-93
2023/10/28 04:35:48;;;;;;;11.95;1.25;;;;;;;14.87;100.00;97780.38;5020311;28;20021;-92
2023/10/28 04:38:14;;;;;;;14.30;1.40;;;;;;;14.64;100.00;97751.47;5019952;28;20041;-94
2023/10/28 04:40:40;;;;;;;12.20;2.20;;;;;;;14.82;100.00;97787.84;5019380;28;20033;-94
2023/10/28 04:43:06;;;;;;;10.35;1.77;;;;;;;14.66;100.00;97766.50;5052369;28;20055;-94
2023/10/28 04:45:32;;;;;;;11.45;1.13;;;;;;;14.95;100.00;97822.75;5046270;28;20120;-93
2023/10/28 04:47:59;;;;;;;16.45;2.28;;;;;;;15.00;100.00;97813.47;5047347;28;20126;-92
2023/10/28 04:50:25;;;;;;;15.60;1.73;;;;;;;15.12;100.00;97835.13;5020420;28;20072;-93
2023/10/28 04:52:51;;;;;;;15.70;1.35;;;;;;;15.08;100.00;97822.88;5044666;28;20044;-93
2023/10/28 04:55:17;;;;;;;6.13;1.00;;;;;;;14.75;100.00;97771.28;5019428;28;20087;-91
2023/10/28 04:57:43;;;;;;;9.15;1.25;;;;;;;15.05;100.00;97810.56;5043948;28;20057;-95
2023/10/28 05:00:10;;;;;;;13.48;1.95;;;;;;;15.10;100.00;97826.34;5019267;28;20049;-94
2023/10/28 05:02:37;;;;;;;8.93;1.50;;;;;;;15.25;100.00;97837.94;5020343;28;20060;-93
2023/10/28 05:05:05;;;;;;;15.32;1.67;;;;;;;15.02;100.00;97800.00;5020670;28;20510;-94
2023/10/28 05:07:31;;;;;;;12.00;1.23;;;;;;;15.22;100.00;97849.69;5020090;28;20542;-93
2023/10/28 05:09:58;;;;;;;14.98;1.45;;;;;;;15.12;100.00;97830.63;5019538;28;20064;-93
2023/10/28 05:12:24;;;;;;;5.95;0.90;;;;;;;14.99;100.00;97835.88;5017247;28;20061;-93
2023/10/28 05:14:50;;;;;;;20.00;2.60;;;;;;;14.86;100.00;97832.22;5021131;28;20049;-93
2023/10/28 05:17:16;;;;;;;10.27;1.13;;;;;;;14.94;100.00;97854.03;5039061;28;20521;-95
2023/10/28 05:19:42;;;;;;;9.63;1.55;;;;;;;14.89;100.00;97853.44;5018974;28;20052;-92
2023/10/28 05:22:10;;;;;;;18.55;1.58;;;;;;;14.71;100.00;97823.25;5017238;28;20076;-95
2023/10/28 05:24:36;;;;;;;10.88;1.63;;;;;;;14.47;100.00;97784.56;5019472;28;20047;-93
2023/10/28 05:27:02;;;;;;;7.75;1.23;;;;;;;14.90;100.00;97852.50;5039916;28;20037;-93
2023/10/28 05:29:28;;;;;;;5.00;1.05;;;;;;;14.67;100.00;97820.88;5044481;28;20061;-93
2023/10/28 05:31:56;;;;;;;11.38;1.85;;;;;;;14.87;100.00;97868.72;5019325;28;20239;-93
2023/10/28 05:34:23;;;;;;;7.68;1.30;;;;;;;14.58;100.00;97819.59;5017015;28;20092;-96
2023/10/28 05:36:49;;;;;;;15.25;1.52;;;;;;;14.49;100.00;97788.84;5000596;28;20499;-94
2023/10/28 05:39:16;;;;;;;16.10;2.47;;;;;;;14.76;100.00;97834.56;5000466;28;20045;-93
2023/10/28 05:41:42;;;;;;;6.53;1.25;;;;;;;15.03;100.00;97865.13;5000072;28;20056;-93
2023/10/28 05:44:08;;;;;;;14.85;1.30;;;;;;;14.70;100.00;97810.84;5000847;28;20394;-93
2023/10/28 05:46:34;;;;;;;10.77;1.40;;;;;;;14.84;100.00;97820.72;5000210;28;20128;-92
2023/10/28 05:49:00;;;;;;;12.43;1.58;;;;;;;15.05;100.00;97873.94;5000026;28;20507;-93
2023/10/28 05:51:26;;;;;;;12.38;2.03;;;;;;;14.70;100.00;97815.31;5010521;28;20107;-93
2023/10/28 05:53:52;;;;;;;14.95;1.92;;;;;;;14.91;100.00;97862.22;5018147;28;20049;-92
2023/10/28 05:56:19;;;;;;;11.73;1.52;;;;;;;14.86;100.00;97837.56;5051441;28;20498;-93
2023/10/28 05:58:45;;;;;;;19.83;2.13;;;;;;;15.13;100.00;97896.63;5053157;28;20106;-94
2023/10/28 06:01:13;;;;;;;15.48;1.73;;;;;;;15.08;100.00;97868.41;5039379;28;20045;-93
2023/10/28 06:03:39;;;;;;;12.30;3.13;;;;;;;15.13;100.00;97887.72;5018906;28;20048;-91
2023/10/28 06:06:05;;;;;;;8.57;1.90;;;;;;;15.11;100.00;97873.56;5035904;28;20041;-91
2023/10/28 06:08:31;;;;;;;14.57;1.40;;;;;;;15.29;100.00;97898.38;5035747;28;20080;-94
2023/10/28 06:10:57;;;;;;;10.27;1.80;;;;;;;15.11;100.00;97861.03;5018949;28;20049;-92
2023/10/28 06:13:25;;;;;;;6.95;1.88;;;;;;;15.20;100.00;97879.25;5018685;28;20045;-93
2023/10/28 06:15:50;;;;;;;18.83;2.75;;;;;;;15.11;100.00;97878.91;5018565;28;20452;-94
2023/10/28 06:18:20;;;;;;;15.30;2.00;;;;;;;15.08;100.00;97868.41;5043328;28;20099;-93
2023/10/28 06:20:47;;;;;;;9.40;1.80;;;;;;;15.15;100.00;97870.59;5007232;28;20069;-94
2023/10/28 06:23:14;;;;;;;13.63;1.88;;;;;;;15.41;100.00;97901.19;5057271;28;20132;-94
2023/10/28 06:25:40;;;;;;;15.50;1.80;;;;;;;15.14;100.00;97862.69;5024453;28;20037;-94
2023/10/28 06:28:06;;;;;;;27.52;2.05;;;;;;;15.42;100.00;97928.84;5025192;28;20036;-95
2023/10/28 06:30:33;;;;;;;12.48;1.48;;;;;;;15.36;100.00;97905.09;5026762;28;20049;-94
2023/10/28 06:33:01;;;;;;;12.27;1.98;;;;;;;15.44;100.00;97920.69;5024777;28;20060;-95
2023/10/28 06:35:26;;;;;;;9.20;1.48;;;;;;;15.25;100.00;97897.72;5024863;28;20132;-94
2023/10/28 06:37:53;;;;;;;11.90;2.03;;;;;;;15.27;100.00;97878.88;5026470;28;20068;-95
2023/10/28 06:40:19;;;;;;;6.47;1.17;;;;;;;15.72;100.00;97934.19;5024483;28;20045;-94
2023/10/28 06:42:45;;;;;;;11.60;1.20;;;;;;;15.59;100.00;97931.38;5027190;28;20046;-95
2023/10/28 06:45:11;;;;;;;7.32;1.50;;;;;;;15.74;100.00;97951.06;5027880;28;20045;-95
2023/10/28 06:47:38;;;;;;;14.23;1.65;;;;;;;15.51;100.00;97908.69;5024223;28;20049;-93
2023/10/28 06:50:06;;;;;;;9.98;1.33;;;;;;;15.81;100.00;97930.94;5023694;28;20049;-95
2023/10/28 06:52:32;;;;;;;11.32;1.38;;;;;;;16.11;100.00;97988.13;5023538;28;20049;-94
2023/10/28 06:55:00;;;;;;;7.38;1.35;;;;;;;16.08;100.00;97983.81;5025387;28;20411;-94
2023/10/28 06:57:27;;;;;;;13.18;1.13;;;;;;;15.77;100.00;97910.66;5056609;28;20056;-95
2023/10/28 06:59:53;;;;;;;9.13;1.15;;;;;;;16.00;100.00;97940.50;5056008;28;20049;-94
2023/10/28 07:02:20;;;;;;;7.38;1.15;;;;;;;15.98;100.00;97927.22;5019629;28;20042;-93
2023/10/28 07:04:48;;;;;;;7.72;1.85;;;;;;;16.45;100.00;97999.44;5017459;28;20048;-94
2023/10/28 07:07:14;;;;;;;7.40;2.10;;;;;;;16.46;100.00;97980.56;5018096;28;20048;-92
2023/10/28 07:09:40;;;;;;;9.20;1.40;;;;;;;16.62;100.00;97991.16;5017556;28;20042;-93
2023/10/28 07:12:07;;;;;;;14.07;1.55;;;;;;;16.62;100.00;97978.59;5016565;28;20376;-93
2023/10/28 07:14:34;;;;;;;12.68;1.95;;;;;;;16.75;100.00;98001.97;5011718;28;20136;-93
2023/10/28 07:17:01;;;;;;;4.43;1.15;;;;;;;16.44;100.00;97934.19;5018752;28;20068;-94
2023/10/28 07:19:26;;;;;;;7.50;1.40;;;;;;;16.50;100.00;97933.75;5016205;28;20072;-91
2023/10/28 07:21:54;;;;;;;11.10;1.73;;;;;;;16.79;100.00;97960.56;5001608;28;20495;-93
2023/10/28 07:24:20;;;;;;;14.13;1.48;;;;;;;16.73;100.00;97963.63;5013567;28;20049;-95
2023/10/28 07:26:46;;;;;;;6.60;1.45;;;;;;;16.85;100.00;97965.56;5021436;28;20065;-96
2023/10/28 07:29:12;;;;;;;7.25;1.90;;;;;;;16.86;100.00;97953.00;5020045;28;20049;-94
2023/10/28 07:31:38;;;;;;;9.63;1.50;;;;;;;17.02;100.00;97976.06;5021141;28;20129;-95
2023/10/28 07:34:04;;;;;;;6.15;1.08;;;;;;;17.03;100.00;97975.06;5018708;28;20041;-95
2023/10/28 07:36:32;;;;;;;4.82;1.10;;;;;;;17.06;100.00;97994.63;5019391;28;20048;-93
2023/10/28 07:39:03;;;;;;;9.32;1.25;;;;;;;17.00;100.00;97972.59;5020530;28;20442;-93
2023/10/28 07:41:30;;;;;;;10.57;1.83;;;;;;;17.12;100.00;97989.72;5051200;28;20495;-93
2023/10/28 07:43:56;;;;;;;9.02;1.50;;;;;;;17.20;100.00;98016.09;5034682;28;20041;-93
2023/10/28 07:46:23;;;;;;;18.17;1.27;;;;;;;17.33;100.00;97995.50;5017698;28;20398;-93
2023/10/28 07:48:49;;;;;;;8.70;1.55;;;;;;;17.33;100.00;97984.75;5036131;28;20140;-95
2023/10/28 07:51:17;;;;;;;9.52;1.48;;;;;;;17.22;100.00;97988.16;5021196;28;20046;-93
2023/10/28 07:53:44;;;;;;;8.18;1.10;;;;;;;17.63;100.00;98026.63;5017521;28;20076;-93
2023/10/28 07:56:12;;;;;;;9.43;1.60;;;;;;;17.89;100.00;98042.84;5036436;28;20037;-93
2023/10/28 07:58:38;;;;;;;8.57;1.50;;;;;;;17.89;100.00;98033.00;5018219;28;20045;-93
2023/10/28 08:01:13;;;;;;;6.78;1.92;;;;;;;17.98;100.00;98051.19;5018125;28;20084;-93
2023/10/28 08:03:43;;;;;;;6.57;1.23;;;;;;;18.14;100.00;98050.13;5012180;28;20394;-94
2023/10/28 08:06:11;;;;;;;10.27;1.02;;;;;;;18.39;100.00;98068.09;5017801;28;20044;-93
2023/10/28 08:08:36;;;;;;;5.13;1.10;;;;;;;18.33;100.00;98039.78;5033533;28;20037;-94
2023/10/28 08:11:03;;;;;;;9.52;1.95;;;;;;;18.55;100.00;98049.03;5037357;28;20045;-93
2023/10/28 08:13:30;;;;;;;7.32;1.20;;;;;;;18.44;100.00;98079.41;5017943;28;20104;-94
2023/10/28 08:15:56;;;;;;;7.75;1.25;;;;;;;18.22;100.00;98064.75;5017589;28;20148;-93
2023/10/28 08:18:22;;;;;;;7.13;1.83;;;;;;;18.01;100.00;98037.50;5018643;28;20511;-93
2023/10/28 08:20:48;;;;;;;8.25;1.27;;;;;;;18.22;100.00;98029.78;5018137;28;20052;-93
2023/10/28 08:23:14;;;;;;;8.25;1.00;;;;;;;18.47;100.00;98089.94;5023409;28;20041;-94
2023/10/28 08:25:40;;;;;;;7.20;1.27;;;;;;;18.37;100.00;98078.13;5023912;28;20099;-93
2023/10/28 08:28:05;;;;;;;9.77;1.27;;;;;;;18.81;100.00;98117.22;5051812;28;20036;-94
2023/10/28 08:30:35;;;;;;;11.45;1.48;;;;;;;18.52;100.00;98074.34;5022691;28;20461;-93
2023/10/28 08:33:01;;;;;;;8.23;1.15;;;;;;;18.63;100.00;98104.06;5056006;28;20061;-92
2023/10/28 08:35:28;;;;;;;5.68;1.25;;;;;;;18.88;100.00;98110.44;5056379;28;20078;-92
2023/10/28 08:37:54;;;;;;;7.93;1.20;;;;;;;19.08;100.00;98128.72;5026381;28;20041;-95
2023/10/28 08:40:20;;;;;;;8.23;1.10;;;;;;;18.93;100.00;98086.69;5021403;28;20148;-94
2023/10/28 08:42:47;;;;;;;10.68;1.25;;;;;;;18.98;100.00;98111.50;5057542;28;20029;-92
2023/10/28 08:45:14;;;;;;;8.05;0.95;;;;;;;18.75;100.00;98074.53;5022715;28;20554;-92
2023/10/28 08:47:43;;;;;;;15.63;2.65;;;;;;;18.56;100.00;98110.84;5018853;28;20511;-95
2023/10/28 08:50:09;;;;;;;12.90;2.13;;;;;;;19.06;100.00;98121.72;5016951;28;20063;-94
2023/10/28 08:52:36;;;;;;;5.10;1.20;;;;;;;19.17;100.00;98112.84;5041124;28;20109;-94
2023/10/28 08:55:03;;;;;;;8.93;1.27;;;;;;;19.49;100.00;98122.13;5022373;28;20080;-94
2023/10/28 08:57:30;;;;;;;10.88;1.30;;;;;;;19.83;100.00;98135.84;5023249;28;20057;-94
2023/10/28 08:59:56;;;;;;;5.10;0.95;;;;;;;19.70;100.00;98122.41;5038030;28;20052;-94
2023/10/28 09:02:24;;;;;;;9.75;0.85;;;;;;;19.61;100.00;98070.97;5021502;28;20541;-92
2023/10/28 09:04:52;;;;;;;7.97;1.70;;;;;;;19.84;100.00;98066.53;5020620;28;20376;-93
2023/10/28 09:07:18;;;;;;;6.90;1.20;;;;;;;19.23;100.00;98062.03;5022521;28;20045;-96
2023/10/28 09:09:45;;;;;;;7.22;1.38;;;;;;;19.25;100.00;98065.50;5022969;28;20140;-94
2023/10/28 09:12:11;;;;;;;6.53;1.48;;;;;;;19.74;100.00;98073.66;5021406;28;20132;-92
2023/10/28 09:14:38;;;;;;;5.60;1.17;;;;;;;19.94;100.00;98089.16;5021383;28;20072;-94
2023/10/28 09:17:04;;;;;;;4.55;0.90;;;;;;;19.59;100.00;98073.78;5021780;28;20045;-94
2023/10/28 09:19:30;;;;;;;9.30;1.73;;;;;;;20.00;100.00;98050.91;5055174;28;20049;-96
2023/10/28 09:21:59;;;;;;;7.80;1.02;;;;;;;20.31;100.00;98116.03;5039245;28;20391;-95
2023/10/28 09:24:25;;;;;;;8.02;1.15;;;;;;;20.27;100.00;98074.03;5037023;28;20069;-93
2023/10/28 09:26:50;;;;;;;3.40;0.75;;;;;;;20.03;100.00;98076.81;5021880;28;20467;-93
2023/10/28 09:29:24;;;;;;;6.25;2.05;;;;;;;20.08;100.00;98096.19;5022661;28;20041;-93
2023/10/28 09:31:50;;;;;;;9.35;1.20;;;;;;;19.94;100.00;98128.78;5024080;28;20049;-94
2023/10/28 09:34:16;;;;;;;5.75;1.20;;;;;;;19.90;100.00;98120.91;5020587;28;20049;-94
2023/10/28 09:36:42;;;;;;;7.53;1.05;;;;;;;19.27;100.00;98068.09;5021009;28;20579;-95
2023/10/28 09:39:12;;;;;;;6.60;0.80;;;;;;;19.69;100.00;98144.06;5021946;28;20111;-92
2023/10/28 09:41:39;;;;;;;6.95;1.08;;;;;;;19.67;100.00;98078.59;5020237;28;20041;-96
2023/10/28 09:44:08;;;;;;;9.57;1.65;;;;;;;20.02;100.00;98115.59;5020781;28;20046;-93
2023/10/28 09:46:36;;;;;;;5.65;1.05;;;;;;;20.46;100.00;98108.56;5019141;28;20457;-92
2023/10/28 09:49:07;;;;;;;3.67;0.93;;;;;;;20.33;100.00;98126.72;5028023;28;20045;-94
2023/10/28 09:51:36;;;;;;;3.17;1.17;;;;;;;20.31;100.00;98130.38;5020013;28;20065;-92
2023/10/28 09:54:08;;;;;;;7.93;1.27;;;;;;;20.19;100.00;98082.75;5019078;28;20029;-92
2023/10/28 09:56:37;;;;;;;8.27;1.58;;;;;;;20.50;100.00;98110.06;5017885;28;20498;-92
2023/10/28 09:59:10;;;;;;;5.90;1.02;;;;;;;20.28;100.00;98119.84;5019969;28;20037;-95
2023/10/28 10:01:40;;;;;;;8.10;1.20;;;;;;;;;;5018394;28;20427;-93
2023/10/28 10:04:14;;;;;;;8.63;1.15;;;;;;;20.43;100.00;98133.13;5022203;28;20053;-93
2023/10/28 10:06:40;;;;;;;5.90;0.90;;;;;;;20.66;100.00;98093.53;5021178;28;20128;-93
2023/10/28 10:09:08;;;;;;;7.20;1.00;;;;;;;20.80;100.00;98085.19;5020950;28;20071;-93
2023/10/28 10:11:42;;;;;;;5.70;1.20;;;;;;;20.99;100.00;98086.41;5033880;28;20495;-92
2023/10/28 10:14:10;;;;;;;4.40;0.98;;;;;;;21.14;100.00;98068.94;5035553;28;20049;-94
2023/10/28 10:16:44;;;;;;;5.15;0.70;;;;;;;21.03;100.00;98071.66;5019886;28;20562;-94
2023/10/28 10:19:12;;;;;;;5.15;0.90;;;;;;;21.31;100.00;98070.28;5021414;28;20405;-95
2023/10/28 10:21:47;;;;;;;6.00;1.33;;;;;;;21.25;100.00;98055.44;5041090;28;20056;-92
2023/10/28 10:24:13;;;;;;;5.82;1.33;;;;;;;21.19;100.00;98052.34;5017036;28;20049;-93
2023/10/28 10:26:40;;;;;;;4.85;0.45;;;;;;;21.21;82.56;98081.00;5023466;28;20376;-95
2023/10/28 10:29:08;;;;;;;4.47;1.00;;;;;;;20.80;86.98;98047.38;5027073;28;20043;-93
2023/10/28 10:31:36;;;;;;;4.28;0.55;;;;;;;20.62;84.99;98076.69;5028345;28;20050;-94
2023/10/28 10:34:05;;;;;;;2.38;0.50;;;;;;;20.58;80.89;98077.06;5022529;28;20119;-92
2023/10/28 10:36:35;;;;;;;3.15;0.52;;;;;;;20.30;74.57;98058.47;5021524;28;20065;-92
2023/10/28 10:39:11;;;;;;;4.40;0.57;;;;;;;20.65;77.35;98089.97;5018798;28;20565;-92
2023/10/28 10:41:40;;;;;;;5.30;0.52;;;;;;;20.91;79.20;98108.66;5034033;28;20068;-93
2023/10/28 10:44:34;;;;;;;2.05;0.50;;;;;;;20.98;71.83;98088.25;5018819;28;20053;-95
2023/10/28 10:47:01;;;;;;;5.45;0.43;;;;;;;20.72;72.54;98076.84;5020403;28;20042;-93
2023/10/28 10:49:30;;;;;;;2.58;0.82;;;;;;;21.13;73.17;98095.13;5018698;28;20136;-94
2023/10/28 10:51:58;;;;;;;2.80;0.40;;;;;;;20.81;72.02;98038.25;5037463;28;20041;-96
2023/10/28 10:54:34;;;;;;;5.40;0.90;;;;;;;20.87;71.47;98072.06;5023691;28;20045;-94
2023/10/28 10:57:00;;;;;;;2.35;0.68;;;;;;;21.10;69.25;98089.97;5023536;28;20049;-95
2023/10/28 10:59:28;;;;;;;3.58;0.90;;;;;;;21.27;70.41;98106.66;5023145;28;20042;-92
2023/10/28 11:01:55;;;;;;;3.95;0.80;;;;;;;20.94;68.19;98078.69;5025321;28;20386;-95
2023/10/28 11:04:23;;;;;;;3.30;0.60;;;;;;;21.01;71.60;98087.16;5019615;28;20049;-94
2023/10/28 11:06:51;;;;;;;3.70;0.60;;;;;;;20.55;66.68;98042.16;5020554;28;20038;-94
2023/10/28 11:09:21;;;;;;;3.10;0.80;;;;;;;20.57;67.55;98033.00;5020869;28;20050;-94
2023/10/28 11:12:11;;;;;;;6.03;0.52;;;;;;;20.74;67.54;98025.38;5037366;28;20049;-92
2023/10/28 11:14:39;;;;;;;4.15;0.57;;;;;;;20.93;66.95;98069.72;5020650;28;20127;-93
2023/10/28 11:17:05;;;;;;;2.10;0.52;;;;;;;20.90;64.89;98069.09;5021870;28;20037;-95
2023/10/28 11:19:34;;;;;;;5.03;0.85;;;;;;;21.03;66.79;98056.31;5025481;28;20045;-95
2023/10/28 11:22:03;;;;;;;4.10;0.70;;;;;;;20.72;55.68;98022.81;5024263;28;20044;-96